»·PEaware :: SWA493 KPHX-KSAN

SWA493 :: KPHX-KSAN

FLIGHT INFORMATION

Flight Status: Arrived
Operator:
Southwest Airlines
More flights by this operator :: More flights under this callsign
Pilot: Marcelo T. (6927)
Aircraft: BOEING 737-700
(B737)
More flights by this aircraft type
Origin: KPHX Phoenix Sky Harbor Intl
United States
Destination: KSAN San Diego Intl-Lindbergh
United States
More flights between these airports :: More routes between these airports
Route: +JUDTH6 MOHAK J2 HOGGZ LUCKI1
File this flight plan on PilotEdge
Remarks: PBN / A1D1O1S2T1 NAV / RNVD1E1A1 RNP10 DAT / 1FANSP2PDC DOF / 170315 REG / N237WN EET / KZLA0018
Altitude:
(Current/Filed)
F320
Speed:
(Current/Filed)
442kts
Departed: 14-Mar-17 05:10 PM
Arrived: 14-Mar-17 05:59 PM
Distance/Time
Traveled:
264nm/0:48
Distance/Time
To Go:
Arrived

Flight Plot

Page will automatically refresh every two minutes.

Flight plan parsing failed; only flown route is shown


Map Options




Map Legend


Flown Route
Filed Route
Departure Airport
Arrival Airport
Navaid (VOR, NDB)
Fix

Horizontal Profiles

Position Reports

Time Latitude Longitude Heading Altitude Ground
Speed
14-Mar-17 16:37 33.434424 -111.994994 90 1142ft 0kts
14-Mar-17 16:38 33.434424 -111.994994 90 1142ft 0kts
14-Mar-17 16:39 33.434424 -111.994994 90 1142ft 0kts
14-Mar-17 16:40 33.434424 -111.994994 90 1142ft 0kts
14-Mar-17 16:41 33.434424 -111.994994 90 1142ft 0kts
14-Mar-17 16:42 33.434424 -111.994994 90 1142ft 0kts
14-Mar-17 16:43 33.434424 -111.994994 90 1142ft 0kts
14-Mar-17 16:44 33.434424 -111.994994 90 1142ft 0kts
14-Mar-17 16:45 33.434424 -111.994994 90 1142ft 0kts
14-Mar-17 16:46 33.434424 -111.994994 90 1142ft 0kts
14-Mar-17 16:47 33.434424 -111.994994 90 1142ft 0kts
14-Mar-17 16:48 33.434424 -111.994994 90 1142ft 0kts
14-Mar-17 16:49 33.434424 -111.994994 90 1142ft 0kts
14-Mar-17 16:50 33.434424 -111.994994 90 1142ft 0kts
14-Mar-17 16:51 33.434424 -111.994994 90 1142ft 0kts
14-Mar-17 16:52 33.434424 -111.994994 90 1142ft 0kts
14-Mar-17 16:53 33.434424 -111.994994 90 1142ft 0kts
14-Mar-17 16:54 33.434424 -111.994994 90 1142ft 0kts
14-Mar-17 16:55 33.434424 -111.994994 90 1142ft 0kts
14-Mar-17 16:56 33.434424 -111.994994 90 1142ft 0kts
14-Mar-17 16:57 33.434424 -111.994994 90 1142ft 0kts
14-Mar-17 16:58 33.434424 -111.994994 90 1142ft 0kts
14-Mar-17 16:59 33.434424 -111.994994 90 1142ft 0kts
14-Mar-17 17:00 33.434424 -111.994994 90 1142ft 0kts
14-Mar-17 17:01 33.434424 -111.994994 90 1142ft 0kts
14-Mar-17 17:02 33.434425 -111.995261 90 1142ft 2kts
14-Mar-17 17:03 33.434427 -111.995579 90 1142ft 0kts
14-Mar-17 17:04 33.434427 -111.995579 90 1142ft 0kts
14-Mar-17 17:05 33.434427 -111.995579 90 1142ft 0kts
14-Mar-17 17:06 33.434427 -111.995579 90 1142ft 0kts
14-Mar-17 17:07 33.434427 -111.995579 90 1142ft 0kts
14-Mar-17 17:08 33.433883 -111.995388 178 1142ft 10kts
14-Mar-17 17:09 33.432114 -111.995013 87 1142ft 7kts
14-Mar-17 17:10 33.432029 -111.993639 130 1142ft 5kts
14-Mar-17 17:11 33.431027 -111.997426 270 1143ft 69kts
14-Mar-17 17:12 33.427577 -112.044322 245 2822ft 164kts
14-Mar-17 17:13 33.398828 -112.101590 238 5081ft 214kts
14-Mar-17 17:14 33.351162 -112.152386 187 7417ft 278kts
14-Mar-17 17:15 33.272936 -112.166907 214 10474ft 302kts
14-Mar-17 17:16 33.217716 -112.255258 235 12424ft 360kts
14-Mar-17 17:17 33.156373 -112.352890 233 15690ft 374kts
14-Mar-17 17:18 33.093423 -112.454108 233 18852ft 388kts
14-Mar-17 17:19 33.028002 -112.559194 232 21679ft 402kts
14-Mar-17 17:20 32.963931 -112.670653 245 24129ft 416kts
14-Mar-17 17:21 32.938098 -112.807163 259 26318ft 429kts
14-Mar-17 17:22 32.921526 -112.929715 259 28000ft 436kts
14-Mar-17 17:23 32.901838 -113.073239 259 29904ft 439kts
14-Mar-17 17:24 32.882651 -113.215094 259 31947ft 433kts
14-Mar-17 17:25 32.863314 -113.356358 260 32057ft 428kts
14-Mar-17 17:26 32.843810 -113.496109 259 32053ft 429kts
14-Mar-17 17:27 32.824009 -113.635602 259 32048ft 429kts
14-Mar-17 17:28 32.804240 -113.775218 259 32042ft 428kts
14-Mar-17 17:29 32.784135 -113.914759 259 32036ft 429kts
14-Mar-17 17:30 32.774936 -114.056074 269 32032ft 427kts
14-Mar-17 17:31 32.779978 -114.197004 272 32028ft 428kts
14-Mar-17 17:32 32.784899 -114.319975 272 32025ft 427kts
14-Mar-17 17:33 32.807295 -114.458124 287 32022ft 429kts
14-Mar-17 17:34 32.844482 -114.593136 286 32022ft 428kts
14-Mar-17 17:35 32.875757 -114.729096 275 32021ft 427kts
14-Mar-17 17:36 32.876009 -114.869859 268 32021ft 425kts
14-Mar-17 17:37 32.873037 -115.010504 268 31398ft 427kts
14-Mar-17 17:38 32.869771 -115.151310 267 29671ft 420kts
14-Mar-17 17:39 32.866230 -115.288156 266 27392ft 406kts
14-Mar-17 17:40 32.854163 -115.419277 258 25157ft 394kts
14-Mar-17 17:41 32.835240 -115.544899 256 23647ft 379kts
14-Mar-17 17:42 32.817504 -115.652913 256 21714ft 384kts
14-Mar-17 17:43 32.797043 -115.776474 256 20008ft 376kts
14-Mar-17 17:44 32.780169 -115.897525 262 18354ft 370kts
14-Mar-17 17:45 32.772426 -116.017773 262 16597ft 359kts
14-Mar-17 17:46 32.763721 -116.134799 262 15007ft 352kts
14-Mar-17 17:47 32.754863 -116.249483 262 13457ft 342kts
14-Mar-17 17:48 32.746506 -116.358201 262 11877ft 322kts
14-Mar-17 17:49 32.738543 -116.459467 262 10587ft 297kts
14-Mar-17 17:50 32.730397 -116.552027 261 10019ft 263kts
14-Mar-17 17:51 32.722016 -116.638222 262 8495ft 276kts
14-Mar-17 17:52 32.715413 -116.717584 263 7273ft 271kts
14-Mar-17 17:53 32.708657 -116.803842 262 6162ft 252kts
14-Mar-17 17:54 32.687927 -116.880482 246 5031ft 237kts
14-Mar-17 17:55 32.675853 -116.953657 282 3942ft 226kts
14-Mar-17 17:56 32.692576 -117.020831 285 2963ft 191kts
14-Mar-17 17:57 32.706067 -117.076324 285 2126ft 162kts
14-Mar-17 17:58 32.717810 -117.124984 286 1210ft 141kts
14-Mar-17 17:59 32.728302 -117.168192 287 300ft 132kts
14-Mar-17 18:00 32.735097 -117.196002 285 23ft 23kts
14-Mar-17 18:01 32.734622 -117.198246 125 23ft 8kts
14-Mar-17 18:02 32.733597 -117.197101 194 23ft 3kts
14-Mar-17 18:03 32.733123 -117.196813 140 23ft 0kts
14-Mar-17 18:04 32.733123 -117.196813 140 23ft 0kts
14-Mar-17 18:05 32.733123 -117.196813 140 23ft 0kts

Navigation Log

Ident Type
Flight plan parsing failed, navigation log unavailable